Time;durP1;ratioP1;P1;durP2;ratioP2;P2;SDS_P1;SDS_P2;PMS_P1;PMS_P2;Temp;Humidity;BMP_temperature;BMP_pressure;BME280_temperature;BME280_humidity;BME280_pressure;Samples;Min_cycle;Max_cycle;Signal;HPM_P1;HPM_P2
2022/06/26 00:01:34;;;;;;;2.35;2.00;;;23.40;57.30;;;;;;5057080;28;20188;-66
2022/06/26 00:04:02;;;;;;;3.10;2.35;;;23.40;57.50;;;;;;5056304;28;20245;-67
2022/06/26 00:06:29;;;;;;;2.38;2.17;;;23.40;57.30;;;;;;5055533;28;20206;-66
2022/06/26 00:08:56;;;;;;;2.50;2.30;;;23.40;57.40;;;;;;5055079;28;20199;-66
2022/06/26 00:11:23;;;;;;;2.40;2.10;;;23.40;57.30;;;;;;5055202;28;20208;-66
2022/06/26 00:13:51;;;;;;;1.80;1.70;;;23.40;57.30;;;;;;5055087;28;20226;-66
2022/06/26 00:16:19;;;;;;;2.22;1.83;;;23.40;57.40;;;;;;5056103;28;20208;-66
2022/06/26 00:18:47;;;;;;;2.63;2.10;;;23.30;57.40;;;;;;5071698;28;20227;-66
2022/06/26 00:21:13;;;;;;;3.10;2.10;;;23.40;57.80;;;;;;5071646;28;20682;-66
2022/06/26 00:23:41;;;;;;;2.33;2.13;;;23.30;57.60;;;;;;5071359;28;20211;-66
2022/06/26 00:26:08;;;;;;;3.10;2.10;;;23.30;57.50;;;;;;5055954;28;20212;-65
2022/06/26 00:28:35;;;;;;;2.42;2.10;;;23.30;57.50;;;;;;5054621;28;20210;-67
2022/06/26 00:31:04;;;;;;;2.40;1.90;;;23.30;57.50;;;;;;5054611;28;20272;-65
2022/06/26 00:33:31;;;;;;;2.65;2.17;;;23.30;57.70;;;;;;5054513;28;20215;-66
2022/06/26 00:35:58;;;;;;;2.55;2.10;;;23.30;57.60;;;;;;5054415;28;20704;-66
2022/06/26 00:38:26;;;;;;;2.13;2.03;;;23.30;57.50;;;;;;5054580;28;20243;-66
2022/06/26 00:40:52;;;;;;;2.47;2.20;;;23.30;58.30;;;;;;5054290;28;20199;-66
2022/06/26 00:43:21;;;;;;;2.30;2.10;;;23.30;57.70;;;;;;5055482;28;20208;-66
2022/06/26 00:45:48;;;;;;;2.60;2.40;;;23.30;57.70;;;;;;5055827;28;20198;-66
2022/06/26 00:48:16;;;;;;;2.67;2.05;;;23.30;57.50;;;;;;5054423;28;20192;-66
2022/06/26 00:50:43;;;;;;;2.45;2.25;;;23.30;57.50;;;;;;5055332;28;20192;-66
2022/06/26 00:53:10;;;;;;;2.20;2.00;;;23.30;57.60;;;;;;5053812;28;20277;-66
2022/06/26 00:55:38;;;;;;;2.30;2.10;;;23.30;57.60;;;;;;5070133;28;20202;-66
2022/06/26 00:58:04;;;;;;;2.17;1.98;;;23.30;57.60;;;;;;5070605;28;20195;-66
2022/06/26 01:00:32;;;;;;;2.13;1.90;;;23.30;57.60;;;;;;5053775;28;20195;-66
2022/06/26 01:02:59;;;;;;;2.00;1.90;;;23.30;57.70;;;;;;5053869;28;20232;-65
2022/06/26 01:05:28;;;;;;;2.72;2.10;;;23.30;57.50;;;;;;5055207;28;20187;-66
2022/06/26 01:07:55;;;;;;;2.25;2.05;;;23.30;57.50;;;;;;5055039;28;20278;-66
2022/06/26 01:10:24;;;;;;;2.15;1.88;;;23.30;57.50;;;;;;5053690;28;20199;-66
2022/06/26 01:12:51;;;;;;;1.98;1.88;;;23.30;57.60;;;;;;5053889;28;20218;-66
2022/06/26 01:15:18;;;;;;;1.80;1.70;;;23.30;58.20;;;;;;5070588;28;20203;-66
2022/06/26 01:17:45;;;;;;;2.03;1.83;;;23.30;57.70;;;;;;5053779;28;20215;-65
2022/06/26 01:20:15;;;;;;;2.05;1.90;;;23.30;57.50;;;;;;5070620;28;20287;-66
2022/06/26 01:22:44;;;;;;;2.20;1.90;;;23.30;57.50;;;;;;5070596;28;20230;-66
2022/06/26 01:25:11;;;;;;;2.40;2.20;;;23.30;57.50;;;;;;5054678;28;20683;-65
2022/06/26 01:27:42;;;;;;;2.50;1.90;;;23.30;57.50;;;;;;5070389;28;20294;-66
2022/06/26 01:30:10;;;;;;;1.98;1.60;;;23.30;57.50;;;;;;5069990;28;20203;-66
2022/06/26 01:32:37;;;;;;;2.40;2.03;;;23.30;57.70;;;;;;5053069;28;20215;-66
2022/06/26 01:35:06;;;;;;;2.03;1.90;;;23.30;57.70;;;;;;5053056;28;20195;-66
2022/06/26 01:37:34;;;;;;;1.65;1.55;;;23.30;57.70;;;;;;5053050;28;20691;-66
2022/06/26 01:40:02;;;;;;;2.20;1.80;;;23.30;57.60;;;;;;5069730;28;20195;-66
2022/06/26 01:42:29;;;;;;;1.98;1.85;;;23.30;57.40;;;;;;5052899;28;20595;-66
2022/06/26 01:44:56;;;;;;;2.08;1.70;;;23.30;57.50;;;;;;5053264;28;20261;-66
2022/06/26 01:47:23;;;;;;;2.10;1.88;;;23.30;57.70;;;;;;5053115;28;20195;-66
2022/06/26 01:49:50;;;;;;;1.70;1.60;;;23.30;57.60;;;;;;5069485;28;20235;-66
2022/06/26 01:52:18;;;;;;;2.10;1.90;;;23.30;57.70;;;;;;5052675;28;20199;-66
2022/06/26 01:54:47;;;;;;;2.05;1.75;;;23.30;57.70;;;;;;5052856;28;20195;-66
2022/06/26 01:57:16;;;;;;;2.97;2.17;;;23.30;57.70;;;;;;5052660;28;20222;-66
2022/06/26 01:59:46;;;;;;;2.70;2.05;;;23.30;57.70;;;;;;5052854;28;20197;-66
2022/06/26 02:02:18;;;;;;;2.80;2.15;;;23.30;57.50;;;;;;5053240;28;20202;-66
2022/06/26 02:04:45;;;;;;;2.45;2.05;;;23.30;57.50;;;;;;5052783;28;20290;-66
2022/06/26 02:07:12;;;;;;;2.20;1.90;;;23.30;57.50;;;;;;5051787;28;20197;-66
2022/06/26 02:15:29;;;;;;;2.10;1.90;;;23.30;57.50;;;;;;5048364;28;20199;-65
2022/06/26 02:17:58;;;;;;;1.85;1.70;;;23.30;57.70;;;;;;5052414;28;20211;-66
2022/06/26 02:20:26;;;;;;;1.95;1.67;;;23.30;57.70;;;;;;5052716;28;20578;-66
2022/06/26 02:22:53;;;;;;;2.10;1.70;;;23.30;57.70;;;;;;5052355;28;20306;-66
2022/06/26 02:25:20;;;;;;;2.35;1.80;;;23.30;57.70;;;;;;5052523;28;20668;-65
2022/06/26 02:27:49;;;;;;;1.70;1.60;;;23.30;57.70;;;;;;5069132;28;20595;-66
2022/06/26 02:30:16;;;;;;;2.47;2.05;;;23.30;58.30;;;;;;5053506;28;20270;-66
2022/06/26 02:32:45;;;;;;;2.63;1.73;;;23.30;57.70;;;;;;5052245;28;20273;-66
2022/06/26 02:35:12;;;;;;;1.90;1.80;;;23.30;57.70;;;;;;5068754;28;20191;-66
2022/06/26 02:37:39;;;;;;;2.70;1.90;;;23.30;57.60;;;;;;5052042;28;20219;-66
2022/06/26 02:40:08;;;;;;;2.13;1.92;;;23.30;57.60;;;;;;5051996;28;20197;-66
2022/06/26 02:42:35;;;;;;;2.67;1.80;;;23.30;57.70;;;;;;5052064;28;20215;-66
2022/06/26 02:45:04;;;;;;;1.90;1.80;;;23.30;57.70;;;;;;5068751;28;20214;-66
2022/06/26 02:47:31;;;;;;;2.00;1.75;;;23.30;57.70;;;;;;5052057;28;20214;-64
2022/06/26 02:49:59;;;;;;;2.13;1.92;;;23.30;57.70;;;;;;5051986;28;20202;-66
2022/06/26 02:52:25;;;;;;;2.13;1.70;;;23.30;57.70;;;;;;5051826;28;20191;-65
2022/06/26 02:54:52;;;;;;;1.70;1.60;;;23.30;57.70;;;;;;5092385;23;20235;-71
2022/06/26 02:57:19;;;;;;;2.10;1.70;;;23.30;57.70;;;;;;5051834;28;20252;-72
2022/06/26 02:59:48;;;;;;;1.60;1.50;;;23.30;57.70;;;;;;5051948;28;20199;-71
2022/06/26 03:02:16;;;;;;;2.22;1.65;;;23.30;57.70;;;;;;5051918;28;20221;-72
2022/06/26 03:04:49;;;;;;;1.83;1.73;;;23.30;57.60;;;;;;5051931;28;20808;-71
2022/06/26 03:07:19;;;;;;;1.80;1.70;;;23.30;57.70;;;;;;5051964;28;20595;-72
2022/06/26 03:09:46;;;;;;;2.10;1.90;;;23.30;57.70;;;;;;5051781;28;20195;-72
2022/06/26 03:12:13;;;;;;;2.42;1.85;;;23.30;57.70;;;;;;5051945;28;20195;-72
2022/06/26 03:14:42;;;;;;;1.90;1.75;;;23.30;57.70;;;;;;5051724;28;20215;-72
2022/06/26 03:17:10;;;;;;;1.98;1.70;;;23.30;57.70;;;;;;5052315;28;20722;-72
2022/06/26 03:19:38;;;;;;;1.80;1.70;;;23.30;57.70;;;;;;5055267;28;20202;-72
2022/06/26 03:22:06;;;;;;;1.75;1.55;;;23.30;57.70;;;;;;5056504;28;20195;-72
2022/06/26 03:24:33;;;;;;;1.70;1.60;;;23.30;57.70;;;;;;5055939;28;20302;-72
2022/06/26 03:27:00;;;;;;;2.65;1.80;;;23.40;57.90;;;;;;5056044;28;20196;-72
2022/06/26 03:29:27;;;;;;;1.70;1.60;;;23.40;57.90;;;;;;5056559;28;20291;-72
2022/06/26 03:31:55;;;;;;;1.83;1.73;;;23.50;57.90;;;;;;5056845;28;20282;-72
2022/06/26 03:34:22;;;;;;;1.67;1.58;;;23.50;57.70;;;;;;5058487;28;20223;-72
2022/06/26 03:36:51;;;;;;;1.80;1.60;;;23.60;57.40;;;;;;5058530;28;20215;-72
2022/06/26 03:39:18;;;;;;;1.90;1.80;;;23.70;58.10;;;;;;5056798;28;20202;-72
2022/06/26 03:41:57;;;;;;;2.05;1.70;;;23.70;57.40;;;;;;5056506;28;20621;-72
2022/06/26 03:44:27;;;;;;;2.63;1.60;;;23.70;57.20;;;;;;5072438;28;20219;-72
2022/06/26 03:46:55;;;;;;;2.05;1.75;;;23.80;57.20;;;;;;5055677;28;20637;-72
2022/06/26 03:49:22;;;;;;;2.85;1.70;;;23.80;57.00;;;;;;5057071;28;20191;-72
2022/06/26 03:51:50;;;;;;;2.10;1.90;;;23.80;56.80;;;;;;5072257;28;20214;-72
2022/06/26 03:54:18;;;;;;;1.80;1.70;;;23.90;56.80;;;;;;5072007;28;20227;-72
2022/06/26 03:56:46;;;;;;;2.22;1.98;;;23.90;56.70;;;;;;5055824;28;20196;-72
2022/06/26 03:59:13;;;;;;;2.00;1.80;;;24.00;56.70;;;;;;5055214;28;20191;-72
2022/06/26 04:01:40;;;;;;;1.88;1.77;;;24.00;56.50;;;;;;5056225;28;20195;-72
2022/06/26 04:04:09;;;;;;;1.80;1.70;;;24.00;56.50;;;;;;5057065;28;20219;-72
2022/06/26 04:06:36;;;;;;;1.70;1.60;;;24.00;56.50;;;;;;5056192;28;20216;-72
2022/06/26 04:09:10;;;;;;;1.60;1.50;;;24.10;56.50;;;;;;5056307;28;20188;-72
2022/06/26 04:11:37;;;;;;;1.80;1.70;;;24.10;56.50;;;;;;5055339;28;20226;-72
2022/06/26 04:14:04;;;;;;;1.70;1.60;;;24.10;56.90;;;;;;5055130;28;20229;-72
2022/06/26 04:16:34;;;;;;;1.60;1.50;;;24.10;56.30;;;;;;5055105;28;20201;-72
2022/06/26 04:19:01;;;;;;;1.70;1.60;;;24.10;56.20;;;;;;5071679;28;20223;-72
2022/06/26 04:21:28;;;;;;;2.55;1.80;;;24.20;56.90;;;;;;5054968;28;20297;-72
2022/06/26 04:23:55;;;;;;;2.50;1.52;;;24.20;56.20;;;;;;5071439;28;20219;-72
2022/06/26 04:26:25;;;;;;;1.60;1.50;;;24.20;56.20;;;;;;5072068;28;20230;-72
2022/06/26 04:28:52;;;;;;;1.40;1.30;;;24.20;56.20;;;;;;5054871;28;20238;-72
2022/06/26 04:31:18;;;;;;;2.38;1.70;;;24.20;56.30;;;;;;5055102;28;20184;-72
2022/06/26 04:33:50;;;;;;;1.95;1.60;;;24.20;56.20;;;;;;5071386;28;20247;-72
2022/06/26 04:36:17;;;;;;;1.73;1.50;;;24.20;56.30;;;;;;5054753;28;20210;-72
2022/06/26 04:38:44;;;;;;;1.60;1.50;;;24.20;56.20;;;;;;5071598;28;20722;-72
2022/06/26 04:43:57;;;;;;;2.40;1.70;;;24.20;56.20;;;;;;5057493;28;20256;-72
2022/06/26 04:46:25;;;;;;;2.65;1.60;;;24.20;56.40;;;;;;5055186;28;20197;-72
2022/06/26 04:48:53;;;;;;;1.98;1.50;;;24.20;56.40;;;;;;5054824;28;20193;-72
2022/06/26 04:51:21;;;;;;;1.60;1.50;;;24.20;56.40;;;;;;5054284;28;20199;-72
2022/06/26 04:53:48;;;;;;;1.58;1.48;;;24.20;56.40;;;;;;5070907;28;20306;-72
2022/06/26 04:56:16;;;;;;;2.58;1.50;;;24.10;56.40;;;;;;5054425;28;20191;-72
2022/06/26 04:58:46;;;;;;;1.52;1.42;;;24.10;56.50;;;;;;5054203;28;20216;-72
2022/06/26 05:01:15;;;;;;;1.60;1.50;;;24.10;56.50;;;;;;5054003;28;20195;-72
2022/06/26 05:04:17;;;;;;;1.50;1.40;;;24.10;56.60;;;;;;5049857;28;20215;-72
2022/06/26 05:07:14;;;;;;;1.85;1.60;;;24.20;56.70;;;;;;5035854;28;20232;-72
2022/06/26 05:09:41;;;;;;;2.05;1.77;;;24.10;56.70;;;;;;5053559;28;20241;-72
2022/06/26 05:12:09;;;;;;;1.60;1.50;;;24.10;56.80;;;;;;5053766;28;20195;-72
2022/06/26 05:14:59;;;;;;;1.52;1.42;;;24.10;56.80;;;;;;5054612;28;20301;-72
2022/06/26 05:17:38;;;;;;;1.58;1.48;;;24.10;56.80;;;;;;5053790;28;20233;-73
2022/06/26 05:20:08;;;;;;;1.85;1.50;;;24.10;56.90;;;;;;5053492;28;20587;-72
2022/06/26 05:22:34;;;;;;;1.70;1.60;;;24.10;56.90;;;;;;5053380;28;20221;-72
2022/06/26 05:25:01;;;;;;;1.85;1.65;;;24.10;56.80;;;;;;5053301;28;20226;-72
2022/06/26 05:27:29;;;;;;;1.60;1.50;;;24.00;56.90;;;;;;5053384;28;20195;-72
2022/06/26 05:29:56;;;;;;;1.38;1.27;;;24.00;56.90;;;;;;5053226;28;20208;-72
2022/06/26 05:32:23;;;;;;;1.73;1.63;;;24.00;56.90;;;;;;5053329;28;20648;-72
2022/06/26 05:34:51;;;;;;;2.40;1.63;;;24.10;57.00;;;;;;5053308;28;20215;-72
2022/06/26 05:37:18;;;;;;;1.42;1.33;;;24.00;57.00;;;;;;5053041;28;20231;-72
2022/06/26 05:39:46;;;;;;;1.70;1.60;;;24.00;57.00;;;;;;5052963;28;20202;-72
2022/06/26 05:42:13;;;;;;;2.67;1.60;;;24.00;57.00;;;;;;5052967;28;20195;-72
2022/06/26 05:44:41;;;;;;;1.90;1.65;;;24.10;57.20;;;;;;5069427;28;20239;-72
2022/06/26 05:47:11;;;;;;;1.65;1.55;;;24.10;57.10;;;;;;5052789;28;20286;-72
2022/06/26 05:50:03;;;;;;;1.60;1.48;;;24.10;57.10;;;;;;5054041;28;20279;-71
2022/06/26 05:52:56;;;;;;;1.50;1.40;;;24.10;57.00;;;;;;5052575;28;20195;-71
2022/06/26 05:55:50;;;;;;;1.75;1.63;;;24.20;56.90;;;;;;5045338;28;20234;-71
2022/06/26 05:58:32;;;;;;;1.73;1.63;;;24.20;56.80;;;;;;5052727;28;20226;-71
2022/06/26 06:01:34;;;;;;;1.65;1.55;;;24.20;56.80;;;;;;5032136;28;20191;-71
2022/06/26 06:04:08;;;;;;;1.60;1.50;;;24.20;56.70;;;;;;5046631;28;20647;-71
2022/06/26 06:06:38;;;;;;;1.92;1.60;;;24.30;56.80;;;;;;5052694;28;20199;-71
2022/06/26 06:09:07;;;;;;;1.50;1.40;;;24.30;56.80;;;;;;5053063;28;20198;-71
2022/06/26 06:11:34;;;;;;;1.48;1.38;;;24.30;56.60;;;;;;5052477;28;20735;-71
2022/06/26 06:14:01;;;;;;;1.92;1.70;;;24.30;56.60;;;;;;5052576;28;20211;-72
2022/06/26 06:16:29;;;;;;;1.30;1.30;;;24.30;56.60;;;;;;5052362;28;20198;-71
2022/06/26 06:18:56;;;;;;;1.48;1.38;;;24.40;56.70;;;;;;5053742;28;20254;-71
2022/06/26 06:21:28;;;;;;;1.60;1.50;;;24.40;56.70;;;;;;5052289;28;20220;-71
2022/06/26 06:23:56;;;;;;;1.52;1.42;;;24.40;56.70;;;;;;5052032;28;20222;-71
2022/06/26 06:26:25;;;;;;;1.48;1.38;;;24.40;56.70;;;;;;5052134;28;20195;-71
2022/06/26 06:28:55;;;;;;;1.33;1.30;;;24.50;56.60;;;;;;5052385;28;20192;-71
2022/06/26 06:31:23;;;;;;;1.60;1.50;;;24.50;56.40;;;;;;5052313;28;20286;-71
2022/06/26 06:33:50;;;;;;;1.48;1.38;;;24.60;56.30;;;;;;5052129;28;20290;-72
2022/06/26 06:36:18;;;;;;;1.48;1.38;;;24.70;56.10;;;;;;5052151;28;20369;-71
2022/06/26 06:38:45;;;;;;;1.58;1.50;;;24.80;55.60;;;;;;5068788;28;20595;-71
2022/06/26 06:41:13;;;;;;;1.73;1.40;;;25.10;55.40;;;;;;5052092;28;20191;-71
2022/06/26 06:43:53;;;;;;;2.47;1.52;;;25.30;54.70;;;;;;5052078;28;20310;-72
2022/06/26 06:46:32;;;;;;;1.58;1.48;;;25.50;54.00;;;;;;5054256;28;20189;-72
2022/06/26 06:49:14;;;;;;;1.65;1.55;;;25.70;53.60;;;;;;5052192;28;20199;-71
2022/06/26 06:51:50;;;;;;;1.50;1.40;;;25.80;53.20;;;;;;5052109;28;20191;-72
2022/06/26 06:54:17;;;;;;;1.48;1.38;;;25.90;53.00;;;;;;5051843;28;20783;-71
2022/06/26 06:56:47;;;;;;;1.40;1.30;;;26.00;52.70;;;;;;5068752;28;20741;-72
2022/06/26 06:59:15;;;;;;;1.25;1.25;;;26.20;52.40;;;;;;5051832;28;20207;-72
2022/06/26 07:01:42;;;;;;;1.40;1.30;;;26.30;52.00;;;;;;5068447;28;20612;-72
2022/06/26 07:04:09;;;;;;;1.50;1.40;;;26.50;51.60;;;;;;5051891;28;20215;-72
2022/06/26 07:06:37;;;;;;;1.40;1.30;;;26.60;51.10;;;;;;5051788;28;20198;-72
2022/06/26 07:09:04;;;;;;;1.50;1.40;;;26.70;50.80;;;;;;5051710;28;20690;-72
2022/06/26 07:11:31;;;;;;;1.13;1.13;;;26.90;50.70;;;;;;5051997;28;20295;-72
2022/06/26 07:14:00;;;;;;;1.48;1.38;;;27.00;50.20;;;;;;5051575;28;20211;-72
2022/06/26 07:16:26;;;;;;;1.40;1.30;;;27.10;50.00;;;;;;5051650;28;20290;-73
2022/06/26 07:18:54;;;;;;;1.45;1.35;;;27.20;49.80;;;;;;5051373;28;20669;-72
2022/06/26 07:21:21;;;;;;;1.23;1.23;;;27.20;49.40;;;;;;5051552;28;20296;-72
2022/06/26 07:23:48;;;;;;;1.50;1.40;;;27.30;49.30;;;;;;5068071;28;20272;-72
2022/06/26 07:26:35;;;;;;;1.50;1.40;;;27.40;49.10;;;;;;5051501;28;20194;-72
2022/06/26 07:29:03;;;;;;;1.50;1.40;;;27.50;48.90;;;;;;5051440;28;20253;-72
2022/06/26 07:31:40;;;;;;;1.17;1.15;;;27.60;48.70;;;;;;5051494;28;20236;-72
2022/06/26 07:34:16;;;;;;;1.67;1.58;;;27.60;48.50;;;;;;5051303;28;20210;-72
2022/06/26 07:36:43;;;;;;;1.60;1.50;;;27.70;48.30;;;;;;5051490;28;20195;-72
2022/06/26 07:39:10;;;;;;;1.25;1.15;;;27.80;48.20;;;;;;5051282;28;20211;-72
2022/06/26 07:41:38;;;;;;;1.23;1.23;;;27.80;48.00;;;;;;5051445;28;20231;-72
2022/06/26 07:44:07;;;;;;;1.67;1.30;;;27.90;48.00;;;;;;5051449;28;20305;-72
2022/06/26 07:46:38;;;;;;;1.40;1.30;;;27.90;47.80;;;;;;5051761;28;20226;-72
2022/06/26 07:49:07;;;;;;;1.58;1.48;;;27.90;47.80;;;;;;5068608;28;20520;-72
2022/06/26 07:51:35;;;;;;;1.40;1.30;;;27.90;47.70;;;;;;5051251;28;20216;-72
2022/06/26 07:54:02;;;;;;;1.38;1.27;;;28.00;47.50;;;;;;5052318;28;20225;-72
2022/06/26 07:56:29;;;;;;;1.30;1.30;;;28.00;47.40;;;;;;5051116;28;20206;-72
2022/06/26 07:58:57;;;;;;;1.40;1.30;;;28.10;47.30;;;;;;5067725;28;20297;-72
2022/06/26 08:01:25;;;;;;;1.55;1.42;;;28.10;47.10;;;;;;5051182;28;20198;-72
2022/06/26 08:03:52;;;;;;;1.30;1.23;;;28.10;47.10;;;;;;5052681;28;20289;-72
2022/06/26 08:06:20;;;;;;;1.33;1.33;;;28.10;47.10;;;;;;5127858;22;20201;-73
2022/06/26 08:08:47;;;;;;;1.48;1.38;;;28.20;47.20;;;;;;5054963;28;20304;-74
2022/06/26 08:11:14;;;;;;;1.98;1.40;;;28.20;47.10;;;;;;5054943;28;20668;-73
2022/06/26 08:13:41;;;;;;;1.45;1.35;;;28.20;46.90;;;;;;5054686;28;20713;-74
2022/06/26 08:16:08;;;;;;;1.40;1.30;;;28.20;46.90;;;;;;5071486;28;20225;-73
2022/06/26 08:18:37;;;;;;;1.45;1.40;;;28.30;46.90;;;;;;5071389;28;20694;-73
2022/06/26 08:23:45;;;;;;;1.40;1.30;;;28.30;46.70;;;;;;5070617;28;20214;-74
2022/06/26 08:26:13;;;;;;;0.95;0.95;;;28.30;46.50;;;;;;5056170;28;20190;-73
2022/06/26 08:28:40;;;;;;;1.30;1.30;;;28.40;46.40;;;;;;5054727;28;20191;-73
2022/06/26 08:31:08;;;;;;;1.20;1.20;;;28.50;46.30;;;;;;5071362;28;20656;-73
2022/06/26 08:33:35;;;;;;;1.25;1.23;;;28.50;46.90;;;;;;5055700;28;20213;-74
2022/06/26 08:36:05;;;;;;;1.40;1.30;;;28.50;46.20;;;;;;5054551;28;20225;-73
2022/06/26 08:38:31;;;;;;;1.20;1.20;;;28.50;46.00;;;;;;5054497;28;20222;-73
2022/06/26 08:40:59;;;;;;;1.27;1.27;;;28.50;45.90;;;;;;5055707;28;20598;-73
2022/06/26 08:43:26;;;;;;;1.30;1.20;;;28.50;45.90;;;;;;5070865;28;20663;-73
2022/06/26 08:45:53;;;;;;;1.20;1.10;;;28.60;45.90;;;;;;5071127;28;20199;-73
2022/06/26 08:48:21;;;;;;;1.30;1.20;;;28.60;45.90;;;;;;5055934;28;20656;-73
2022/06/26 08:50:48;;;;;;;1.35;1.30;;;28.60;45.90;;;;;;5071088;28;20637;-74
2022/06/26 08:53:16;;;;;;;1.23;1.23;;;28.60;45.70;;;;;;5183038;22;20730;-73
2022/06/26 08:55:43;;;;;;;1.20;1.10;;;28.60;45.50;;;;;;5054583;28;20191;-73
2022/06/26 09:00:51;;;;;;;3.25;1.50;;;28.70;44.40;;;;;;5141062;22;20222;-73
2022/06/26 09:03:18;;;;;;;1.65;1.55;;;28.80;44.50;;;;;;5053996;28;20195;-73
2022/06/26 09:05:45;;;;;;;1.75;1.50;;;28.70;44.10;;;;;;5054181;28;20198;-74
2022/06/26 09:08:21;;;;;;;1.60;1.50;;;28.70;44.30;;;;;;5055203;28;20289;-73
2022/06/26 09:10:48;;;;;;;1.70;1.50;;;28.80;44.20;;;;;;5070547;28;20566;-74
2022/06/26 09:13:15;;;;;;;1.27;1.25;;;28.80;44.50;;;;;;5070529;28;20191;-74
2022/06/26 09:15:43;;;;;;;1.52;1.30;;;28.80;45.20;;;;;;5053624;28;20248;-73
2022/06/26 09:18:11;;;;;;;2.00;1.60;;;28.80;43.70;;;;;;5278933;22;20230;-73
2022/06/26 09:20:39;;;;;;;4.25;1.73;;;28.80;44.30;;;;;;5084496;22;20244;-67
2022/06/26 09:23:07;;;;;;;2.05;1.50;;;28.80;44.10;;;;;;5052138;28;20728;-68
2022/06/26 09:25:36;;;;;;;1.63;1.52;;;28.90;44.10;;;;;;5053497;28;20256;-67
2022/06/26 09:28:07;;;;;;;3.45;1.30;;;28.90;44.40;;;;;;5054772;28;20643;-68
2022/06/26 09:30:34;;;;;;;2.95;1.60;;;28.80;44.50;;;;;;5053601;28;20206;-68
2022/06/26 09:33:02;;;;;;;1.70;1.50;;;28.90;44.40;;;;;;5054597;28;20222;-67
2022/06/26 09:35:29;;;;;;;1.35;1.17;;;28.90;44.40;;;;;;5053215;28;20226;-68
2022/06/26 09:37:59;;;;;;;2.20;1.45;;;28.90;44.20;;;;;;5053285;28;20219;-67
2022/06/26 09:40:27;;;;;;;1.45;1.20;;;28.90;44.00;;;;;;5054464;28;20210;-68
2022/06/26 09:42:55;;;;;;;1.40;1.30;;;29.00;43.60;;;;;;5052995;28;20293;-68
2022/06/26 09:45:23;;;;;;;1.20;1.10;;;28.90;43.90;;;;;;5053251;28;20211;-68
2022/06/26 09:47:50;;;;;;;2.53;1.30;;;29.00;44.00;;;;;;5052775;28;20237;-68
2022/06/26 09:50:17;;;;;;;1.98;1.40;;;28.90;43.70;;;;;;5054297;28;20212;-68
2022/06/26 09:52:44;;;;;;;1.30;1.20;;;28.90;44.10;;;;;;5069560;28;20203;-67
2022/06/26 09:55:11;;;;;;;1.40;1.25;;;28.90;44.00;;;;;;5054046;28;20225;-67
2022/06/26 09:57:38;;;;;;;1.20;1.20;;;28.80;44.10;;;;;;5069737;28;20226;-67
2022/06/26 10:00:09;;;;;;;1.55;1.20;;;28.80;44.10;;;;;;5054187;28;20203;-67
2022/06/26 10:08:25;;;;;;;1.20;1.20;;;28.70;44.80;;;;;;5068216;28;20219;-68
2022/06/26 10:10:52;;;;;;;1.20;1.10;;;28.60;44.40;;;;;;5052619;28;20285;-68
2022/06/26 10:13:19;;;;;;;1.45;1.35;;;28.60;44.30;;;;;;5053839;28;20222;-67
2022/06/26 10:16:27;;;;;;;1.40;1.30;;;28.70;44.60;;;;;;5053800;28;20517;-68
2022/06/26 10:19:05;;;;;;;1.00;1.00;;;28.60;44.30;;;;;;5052317;28;20290;-68
2022/06/26 10:21:35;;;;;;;1.20;1.15;;;28.60;44.50;;;;;;5053784;28;20642;-68
2022/06/26 10:24:03;;;;;;;1.48;1.30;;;28.60;44.40;;;;;;5052444;28;20621;-68
2022/06/26 10:26:30;;;;;;;1.38;1.27;;;28.60;44.20;;;;;;5068933;28;20215;-67
2022/06/26 10:28:58;;;;;;;1.30;1.23;;;28.60;44.40;;;;;;5051452;28;20203;-67
2022/06/26 10:31:29;;;;;;;1.00;1.00;;;28.60;44.70;;;;;;5068931;28;20218;-67
2022/06/26 10:33:56;;;;;;;1.10;1.08;;;28.50;44.40;;;;;;5068854;28;20273;-68
2022/06/26 10:36:23;;;;;;;1.23;0.90;;;28.50;45.20;;;;;;5051873;28;20631;-67
2022/06/26 10:38:51;;;;;;;1.02;1.02;;;28.40;44.70;;;;;;5068787;28;20199;-67
2022/06/26 10:44:04;;;;;;;1.13;1.10;;;28.40;44.70;;;;;;5206536;22;20289;-73
2022/06/26 10:46:45;;;;;;;1.45;1.10;;;28.30;44.60;;;;;;5230934;22;20249;-74
2022/06/26 10:49:13;;;;;;;2.72;1.40;;;28.20;44.60;;;;;;5052595;28;20240;-75
2022/06/26 10:51:42;;;;;;;2.35;1.25;;;28.20;45.30;;;;;;5068904;28;20209;-74
2022/06/26 10:54:19;;;;;;;1.58;1.48;;;28.10;45.60;;;;;;5069161;28;20290;-75
2022/06/26 10:56:47;;;;;;;2.28;1.20;;;28.10;46.20;;;;;;5052141;28;20198;-75
2022/06/26 10:59:17;;;;;;;2.05;1.10;;;28.10;45.60;;;;;;5068764;28;20265;-75
2022/06/26 11:01:46;;;;;;;1.30;1.20;;;28.10;46.10;;;;;;5051863;28;20198;-74
2022/06/26 11:04:13;;;;;;;1.20;1.20;;;28.10;45.90;;;;;;5052029;28;20195;-73
2022/06/26 11:06:40;;;;;;;1.40;1.30;;;28.10;46.20;;;;;;5053445;28;20182;-75
2022/06/26 11:09:08;;;;;;;1.20;1.10;;;28.10;46.30;;;;;;5052988;28;20206;-75
2022/06/26 11:11:35;;;;;;;1.45;1.17;;;28.10;46.50;;;;;;5053444;28;20190;-75
2022/06/26 11:14:05;;;;;;;1.85;1.20;;;28.10;46.40;;;;;;5051754;28;20205;-75
2022/06/26 11:16:33;;;;;;;1.55;1.10;;;28.00;46.40;;;;;;5053332;28;20195;-75
2022/06/26 11:19:03;;;;;;;1.40;1.30;;;28.00;46.60;;;;;;5052038;28;20225;-74
2022/06/26 11:21:30;;;;;;;1.40;1.30;;;28.00;46.90;;;;;;5069016;28;20555;-74
2022/06/26 11:26:40;;;;;;;1.50;1.40;;;28.00;46.70;;;;;;5103045;22;20222;-72
2022/06/26 11:29:08;;;;;;;2.22;1.30;;;28.00;46.70;;;;;;5131942;22;20297;-74
2022/06/26 11:31:35;;;;;;;1.50;1.23;;;28.00;46.80;;;;;;5069375;28;20206;-74
2022/06/26 11:34:10;;;;;;;1.40;1.30;;;28.00;47.00;;;;;;5070051;28;20225;-74
2022/06/26 11:36:37;;;;;;;1.10;1.10;;;28.00;47.00;;;;;;5070313;28;20283;-74
2022/06/26 11:39:04;;;;;;;1.35;1.25;;;28.10;47.10;;;;;;5052643;28;20215;-74
2022/06/26 11:41:31;;;;;;;1.40;1.30;;;28.10;47.10;;;;;;5057656;28;20656;-75
2022/06/26 11:43:59;;;;;;;1.25;1.15;;;28.10;46.00;;;;;;5310901;22;21036;-73
2022/06/26 11:46:26;;;;;;;1.13;1.10;;;28.10;46.20;;;;;;5036020;28;20188;-74
2022/06/26 11:48:53;;;;;;;1.42;1.30;;;28.10;45.90;;;;;;5036429;28;20219;-74
2022/06/26 11:51:22;;;;;;;1.30;1.20;;;28.10;46.70;;;;;;5036525;28;20263;-74
2022/06/26 11:53:50;;;;;;;4.05;1.30;;;28.10;47.30;;;;;;5035870;28;20290;-74
2022/06/26 11:56:22;;;;;;;1.33;1.20;;;28.10;47.10;;;;;;5036505;28;20211;-74
2022/06/26 11:58:50;;;;;;;1.27;1.17;;;28.10;47.30;;;;;;5036289;28;20331;-74
2022/06/26 12:01:17;;;;;;;1.52;1.20;;;28.10;47.00;;;;;;5036247;28;20250;-74
2022/06/26 12:03:53;;;;;;;1.30;1.20;;;28.00;47.00;;;;;;5035977;28;20202;-74
2022/06/26 12:06:33;;;;;;;2.15;1.30;;;28.00;47.40;;;;;;5138747;22;20292;-75
2022/06/26 12:11:41;;;;;;;1.20;1.17;;;28.00;47.30;;;;;;4975649;28;20211;-74
2022/06/26 12:14:10;;;;;;;1.33;1.20;;;28.00;47.20;;;;;;4976926;28;20212;-74
2022/06/26 12:16:47;;;;;;;1.10;1.10;;;28.00;47.60;;;;;;4976872;28;20197;-74
2022/06/26 12:19:14;;;;;;;1.48;1.10;;;27.90;47.80;;;;;;4976174;28;20221;-74
2022/06/26 12:21:45;;;;;;;1.38;1.10;;;27.90;47.40;;;;;;4976405;28;20202;-74
2022/06/26 12:24:12;;;;;;;1.23;1.13;;;27.90;47.90;;;;;;4977562;28;20217;-74
2022/06/26 12:26:39;;;;;;;1.33;1.23;;;27.90;46.80;;;;;;4977092;28;20365;-74
2022/06/26 12:29:09;;;;;;;1.05;0.95;;;27.90;47.80;;;;;;4976096;28;20221;-74
2022/06/26 12:31:36;;;;;;;1.30;1.20;;;27.80;47.50;;;;;;4976085;28;20208;-74
2022/06/26 12:34:04;;;;;;;1.23;1.20;;;27.80;46.60;;;;;;4976082;28;20193;-74
2022/06/26 12:36:31;;;;;;;1.20;1.10;;;27.80;47.50;;;;;;5352820;22;20221;-73
2022/06/26 12:39:00;;;;;;;1.23;1.13;;;27.80;47.40;;;;;;5068471;28;20254;-72
2022/06/26 12:41:27;;;;;;;1.25;1.20;;;27.80;47.50;;;;;;5054443;28;20691;-73
2022/06/26 12:43:55;;;;;;;1.58;1.20;;;27.80;47.80;;;;;;5102587;22;20261;-72
2022/06/26 12:46:22;;;;;;;1.63;1.20;;;27.70;47.30;;;;;;5056367;28;20190;-74
2022/06/26 12:48:50;;;;;;;1.30;1.20;;;27.70;47.50;;;;;;5054435;28;20222;-74
2022/06/26 12:51:17;;;;;;;1.42;1.20;;;27.70;47.00;;;;;;5070287;28;20199;-73
2022/06/26 12:53:44;;;;;;;1.02;0.93;;;27.70;47.80;;;;;;5072164;28;20218;-74
2022/06/26 12:56:12;;;;;;;1.48;1.38;;;27.70;47.80;;;;;;5136723;22;20234;-74
2022/06/26 12:58:40;;;;;;;1.30;1.20;;;27.70;47.50;;;;;;5054037;28;20222;-74
2022/06/26 13:01:08;;;;;;;1.52;1.10;;;27.70;47.60;;;;;;5241930;22;20238;-73
2022/06/26 13:03:35;;;;;;;1.60;1.08;;;27.70;47.60;;;;;;5055753;28;20175;-74
2022/06/26 13:06:03;;;;;;;1.13;1.10;;;27.70;48.00;;;;;;5068774;22;20284;-67
2022/06/26 13:08:31;;;;;;;1.83;1.20;;;27.70;48.10;;;;;;5035182;28;20191;-68
2022/06/26 13:13:41;;;;;;;1.85;1.17;;;27.60;47.90;;;;;;5033272;28;20212;-68
2022/06/26 13:16:08;;;;;;;1.20;1.10;;;27.60;47.50;;;;;;5034042;28;20206;-68
2022/06/26 13:18:35;;;;;;;2.38;1.17;;;27.60;47.90;;;;;;5035256;28;20686;-68
2022/06/26 13:21:03;;;;;;;1.70;1.20;;;27.60;47.70;;;;;;5309557;22;20238;-73
2022/06/26 13:23:30;;;;;;;1.33;1.23;;;27.50;48.00;;;;;;5054051;28;20233;-73
2022/06/26 13:25:58;;;;;;;2.85;1.15;;;27.50;48.30;;;;;;5053977;28;20659;-73
2022/06/26 13:28:25;;;;;;;1.50;1.17;;;27.50;48.30;;;;;;5053786;28;20190;-73